Saturday, August 18, 2018, 8:26 PM EDT
Back to Local

KILG, Wilmington New Castle Co

Location: New Castle, DE, United States Lat: 39.667
Local Time: 8:26 PM EDT ( 0:26 GMT) Lon: -75.6
Time Zone: US/Eastern Elev: 78 ft

Show me the last for .
Show Decoded

2018-08-18 19:51 METAR KILG 182351Z 31005KT 10SM SCT065 BKN085 OVC110 26/22 A2983 RMK AO2 SLP098
                 60000 T02560222 10306 20256 53006 =
2018-08-18 18:51 METAR KILG 182251Z 29006KT 10SM SCT075 BKN090 27/22 A2982 RMK AO2 SLP095
                 T02720222 =
2018-08-18 17:51 METAR KILG 182151Z 30005KT 10SM FEW038 FEW055 SCT080 27/22 A2981 RMK AO2 LTG
                 DSNT NE RAB21E30 SLP092 P0000 T02720222 =
2018-08-18 16:51 METAR KILG 182051Z 34012KT 10SM FEW050 SCT110 28/21 A2981 RMK AO2 LTG DSNT N AND
                 NE SLP092 T02780211 56014 =
2018-08-18 15:51 METAR KILG 181951Z 23008KT 10SM CLR 30/22 A2981 RMK AO2 LTG DSNT NW SLP092
                 T03000222 =
2018-08-18 14:51 METAR KILG 181851Z 22008KT 10SM FEW043 FEW050 31/23 A2982 RMK AO2 SLP097
                 T03060233 =
2018-08-18 13:51 METAR KILG 181751Z 27011KT 10SM CLR 30/23 A2985 RMK AO2 SLP106 T03000228 10306
                 20239 58013 =
2018-08-18 12:51 METAR KILG 181651Z 30011KT 10SM BKN032 BKN041 29/23 A2986 RMK AO2 SLP110
                 T02940228 =
2018-08-18 11:51 METAR KILG 181551Z 25011KT 10SM CLR 29/22 A2988 RMK AO2 SLP115 T02890222 =
2018-08-18 10:51 METAR KILG 181451Z 25008KT 10SM CLR 28/23 A2989 RMK AO2 SLP119 T02830228 58007 =
2018-08-18 09:51 METAR KILG 181351Z 27007KT 10SM CLR 26/23 A2990 RMK AO2 SLP122 T02610233 =
2018-08-18 08:51 METAR KILG 181251Z 25005KT 10SM CLR 24/23 A2991 RMK AO2 SLP126 T02440233 =
2018-08-18 07:51 METAR KILG 181151Z 00000KT 10SM CLR 24/23 A2991 RMK AO2 SLP126 60014 70057
                 T02390228 10239 20228 55003 =
2018-08-18 06:51 METAR KILG 181051Z 25003KT 10SM SCT060 23/23 A2991 RMK AO2 SLP126 T02330228 =
2018-08-18 05:51 METAR KILG 180951Z AUTO 00000KT 10SM FEW100 23/22 A2990 RMK AO2 RAB21E49 SLP124
                 P0000 T02330222 =
2018-08-18 04:51 METAR KILG 180851Z AUTO 00000KT 10SM SCT110 23/22 A2992 RMK AO2 SLP130 60014
                 T02280222 55009 =
2018-08-18 03:51 METAR KILG 180751Z AUTO 25004KT 10SM CLR 23/22 A2992 RMK AO2 SLP129 T02280222 =
2018-08-18 02:51 METAR KILG 180651Z AUTO 19003KT 10SM SCT045 23/23 A2992 RMK AO2 LTG DSNT E AND
                 SE RAB04E28 TSB0554E21 SLP130 P0014 T02330228 =
2018-08-18 02:21 METAR KILG 180621Z AUTO 00000KT 7SM VCTS -RA SCT030 BKN048 BKN055 23/22 A2993
                 RMK AO2 LTG DSNT NE AND SE RAB04 TSB0554E21 P0014 T02280222 =
2018-08-18 02:11 METAR KILG 180611Z AUTO VRB03KT 2SM R01/5000VP6000FT -TSRA BR FEW017 OVC049
                 23/22 A2994 RMK AO2 LTG DSNT NE RAB04 TSB0554 P0013 T02280222 =
2018-08-18 02:00 METAR KILG 180600Z AUTO 32008KT 10SM TS BKN047 OVC055 23/22 A2995 RMK AO2 LTG
                 DSNT N-SE TSB0554 T02330222 =
2018-08-18 01:51 METAR KILG 180551Z AUTO 33004KT 10SM VCTS OVC047 23/22 A2995 RMK AO2 LTG DSNT
                 ALQDS RAE22B28E46 TSE0456 SLP139 P0037 60043 T02330222 10294 20233 50000 =
2018-08-18 01:23 METAR KILG 180523Z AUTO 33006KT 10SM VCTS FEW027 BKN050 OVC075 23/23 A2996 RMK
                 AO2 LTG DSNT ALQDS RAE22 TSE0456 P0034 T02330228 =
2018-08-18 01:13 METAR KILG 180513Z AUTO 34007KT 3SM VCTS -RA BR BKN029 BKN060 OVC075 23/22 A2996
                 RMK AO2 LTG DSNT E AND W AND NW TSE0456 P0034 T02330222 =
2018-08-18 00:56 METAR KILG 180456Z AUTO 31012KT 1 1/4SM R01/5000VP6000FT VCTS +RA BR BKN027
                 BKN047 OVC060 23/22 A2997 RMK AO2 LTG DSNT W AND NW TSE56 P0012 T02330222 =
2018-08-18 00:51 METAR KILG 180451Z AUTO 30013KT 1 3/4SM +TSRA BR FEW025 BKN046 OVC060 24/22
                 A2997 RMK AO2 LTG DSNT W RAB43 TSB39 SLP149 P0006 T02390222 403330239 =
2018-08-18 00:39 METAR KILG 180439Z AUTO 31015G24KT 10SM TS FEW024 SCT047 BKN055 26/22 A2996 RMK
                 AO2 LTG DSNT W AND NW TSB39 T02610222 =
2018-08-17 23:51 METAR KILG 180351Z AUTO 21004KT 10SM FEW075 27/24 A2994 RMK AO2 LTG DSNT W
                 SLP137 T02670239 =
2018-08-17 22:51 METAR KILG 180251Z AUTO 22005KT 10SM CLR 28/24 A2995 RMK AO2 SLP139 T02780239
                 57002 =
2018-08-17 21:51 METAR KILG 180151Z 21008KT 10SM CLR 28/23 A2995 RMK AO2 SLP141 T02830233 =
2018-08-17 20:51 METAR KILG 180051Z 19009KT 10SM CLR 29/23 A2994 RMK AO2 SLP138 T02890233 =

Support USWX by starting your Amazon purchase here.